»·PEaware :: N2938U KBFL-KSBA

N2938U :: KBFL-KSBA

FLIGHT INFORMATION

Flight Status: Arrived
Operator: Privately registered:
United States
More flights under this callsign
Pilot: Scott H. (20221)
Aircraft: CESSNA 172 SKYHAWK
(C172)
More flights by this aircraft type
Origin: KBFL Meadows
United States
Destination: KSBA Santa Barbara Mun
United States
More flights between these airports :: More routes between these airports
Route: +EHF STIGR RZS
File this flight plan on PilotEdge
Remarks:
Altitude:
(Current/Filed)
4,000ft
Speed:
(Current/Filed)
115kts
Departed: 02-Oct-20 02:20 PM
Arrived: 02-Oct-20 03:19 PM
Distance/Time
Traveled:
72nm/0:59
Distance/Time
To Go:
Arrived

Flight Plot

Page will automatically refresh every two minutes.

Flight plan parsing failed; only flown route is shown


Map Options




Map Legend


Flown Route
Filed Route
Departure Airport
Arrival Airport
Navaid (VOR, NDB)
Fix

Horizontal Profiles

Position Reports

Time Latitude Longitude Heading Altitude Ground
Speed
02-Oct-20 13:58 35.437605 -119.055134 132 509ft 0kts
02-Oct-20 13:59 35.437605 -119.055134 132 509ft 0kts
02-Oct-20 14:00 35.437605 -119.055134 132 509ft 0kts
02-Oct-20 14:01 35.437605 -119.055134 132 509ft 0kts
02-Oct-20 14:02 35.437605 -119.055134 132 509ft 0kts
02-Oct-20 14:03 35.437605 -119.055134 132 509ft 0kts
02-Oct-20 14:04 35.437605 -119.055134 132 509ft 0kts
02-Oct-20 14:05 35.437605 -119.055134 132 509ft 0kts
02-Oct-20 14:06 35.437605 -119.055134 132 509ft 0kts
02-Oct-20 14:07 35.437605 -119.055134 132 509ft 0kts
02-Oct-20 14:08 35.437605 -119.055134 132 509ft 0kts
02-Oct-20 14:09 35.437605 -119.055134 132 509ft 0kts
02-Oct-20 14:10 35.437605 -119.055134 132 509ft 0kts
02-Oct-20 14:11 35.437605 -119.055134 132 509ft 0kts
02-Oct-20 14:12 35.437605 -119.055134 132 509ft 0kts
02-Oct-20 14:13 35.437605 -119.055134 132 509ft 0kts
02-Oct-20 14:14 35.436704 -119.055132 184 509ft 1kts
02-Oct-20 14:15 35.435487 -119.055439 180 509ft 10kts
02-Oct-20 14:16 35.433015 -119.053506 218 509ft 0kts
02-Oct-20 14:17 35.433015 -119.053506 217 509ft 0kts
02-Oct-20 14:18 35.432716 -119.054932 311 509ft 27kts
02-Oct-20 14:19 35.448880 -119.073502 306 1237ft 92kts
02-Oct-20 14:20 35.467246 -119.095842 312 2179ft 95kts
02-Oct-20 14:21 35.463310 -119.118043 202 2921ft 102kts
02-Oct-20 14:22 35.435910 -119.130082 209 3565ft 104kts
02-Oct-20 14:23 35.405252 -119.150088 214 3158ft 133kts
02-Oct-20 14:24 35.377625 -119.170181 215 3051ft 103kts
02-Oct-20 14:25 35.352364 -119.188466 218 3054ft 111kts
02-Oct-20 14:26 35.325707 -119.206521 215 3626ft 103kts
02-Oct-20 14:27 35.300558 -119.222790 214 4331ft 100kts
02-Oct-20 14:28 35.275796 -119.238907 227 4943ft 102kts
02-Oct-20 14:29 35.253849 -119.259356 205 5555ft 104kts
02-Oct-20 14:30 35.227671 -119.274337 204 6114ft 104kts
02-Oct-20 14:31 35.201795 -119.289244 219 6637ft 101kts
02-Oct-20 14:32 35.177980 -119.308879 215 7115ft 103kts
02-Oct-20 14:33 35.154270 -119.328345 210 7606ft 102kts
02-Oct-20 14:34 35.130075 -119.345966 211 8120ft 100kts
02-Oct-20 14:35 35.104817 -119.361582 214 8579ft 101kts
02-Oct-20 14:36 35.080947 -119.378244 223 9084ft 97kts
02-Oct-20 14:37 35.058007 -119.395294 210 9603ft 96kts
02-Oct-20 14:38 35.035715 -119.412696 223 10035ft 100kts
02-Oct-20 14:40 35.010998 -119.430994 208 10114ft 111kts
02-Oct-20 14:41 34.983698 -119.447879 214 10129ft 109kts
02-Oct-20 14:42 34.957037 -119.466406 215 10106ft 111kts
02-Oct-20 14:43 34.931381 -119.485466 214 10062ft 107kts
02-Oct-20 14:44 34.905548 -119.503973 217 10059ft 107kts
02-Oct-20 14:45 34.879271 -119.521549 213 10059ft 107kts
02-Oct-20 14:46 34.853525 -119.539838 215 10063ft 106kts
02-Oct-20 14:47 34.828188 -119.558830 217 10060ft 107kts
02-Oct-20 14:48 34.801594 -119.575798 210 10048ft 108kts
02-Oct-20 14:49 34.775600 -119.594098 217 10046ft 107kts
02-Oct-20 14:50 34.750485 -119.613929 219 10041ft 106kts
02-Oct-20 14:51 34.724632 -119.632187 208 10030ft 108kts
02-Oct-20 14:52 34.699010 -119.650593 208 9805ft 109kts
02-Oct-20 14:53 34.673713 -119.669551 219 9571ft 105kts
02-Oct-20 14:53 34.653991 -119.687310 219 9363ft 106kts
02-Oct-20 14:55 34.639000 -119.722986 252 9013ft 102kts
02-Oct-20 14:56 34.631313 -119.755951 257 8760ft 102kts
02-Oct-20 14:56 34.624795 -119.783319 246 8564ft 100kts
02-Oct-20 14:58 34.612224 -119.820084 250 8090ft 100kts
02-Oct-20 14:59 34.603332 -119.852159 253 7702ft 99kts
02-Oct-20 14:59 34.595505 -119.878575 249 7373ft 101kts
02-Oct-20 15:00 34.585413 -119.909608 250 7053ft 98kts
02-Oct-20 15:01 34.576711 -119.941225 251 6712ft 98kts
02-Oct-20 15:02 34.566944 -119.971980 251 6330ft 98kts
02-Oct-20 15:03 34.557744 -120.002779 254 5915ft 95kts
02-Oct-20 15:04 34.548470 -120.033265 248 5599ft 96kts
02-Oct-20 15:05 34.537960 -120.063308 248 5593ft 93kts
02-Oct-20 15:06 34.523943 -120.086514 186 5574ft 98kts
02-Oct-20 15:07 34.496880 -120.088585 201 5171ft 95kts
02-Oct-20 15:08 34.470873 -120.090411 175 4596ft 97kts
02-Oct-20 15:09 34.444385 -120.087698 190 4016ft 94kts
02-Oct-20 15:10 34.420843 -120.082837 108 3389ft 111kts
02-Oct-20 15:11 34.422428 -120.046009 85 2837ft 105kts
02-Oct-20 15:12 34.424109 -120.009750 91 2698ft 105kts
02-Oct-20 15:13 34.424160 -119.973385 90 2122ft 107kts
02-Oct-20 15:14 34.423751 -119.937102 85 1590ft 105kts
02-Oct-20 15:15 34.426789 -119.900706 90 896ft 105kts
02-Oct-20 15:16 34.427204 -119.873137 89 367ft 78kts
02-Oct-20 15:17 34.427631 -119.850053 98 17ft 44kts
02-Oct-20 15:18 34.426928 -119.846351 165 17ft 7kts
02-Oct-20 15:19 34.426885 -119.846337 164 17ft 0kts
02-Oct-20 15:20 34.426659 -119.841418 88 17ft 32kts
02-Oct-20 15:21 34.424728 -119.837688 168 17ft 21kts

Navigation Log

Ident Type
Flight plan parsing failed, navigation log unavailable